الصفحة الرئيسية
METAR-TAF:

METAR-TAF

مطار :

Woomera, أستراليا

دائرة عرض: 31-08S, خط طول: 136-49E, ارتفاع: 165 متر

مراقبة الطقس الحالي

تاريخ ووقت الإصدار 17 دقيقة قبل الساعة 20:30UTC
ريح 7 عقدة من الجنوب/الجنوب الشرقي
درجة الحرارة 10°درجة مئوية
الرطوبة 82%
ضغط 1026 hPa
الرؤية 10 كم أو أكثر

METAR: YPWR 172030Z AUTO 15007KT 9999 // NCD 10/07 Q1026 RF00.0/000.2

زمن: 06:17 (20:47 UTC)

توقعات

تاريخ ووقت الإصدار 3ساعات و 15 دقيقة قبل الساعة 17:32UTC
التوقعات صالحة من17 الساعة 18 UTC إلى 18 الساعة 12 UTC
ريح 10 عقدة من الجنوب/الجنوب الشرقي
الرؤية 10 كم أو أكثر
الغيوم لا تقل 1500 م ولا وجود لمزنة ركامية السحاب الأسود
من 18 الساعة 0400 UTC
ريح 10 عقدة من الجنوب
الرؤية 10 كم أو أكثر
الغيوم لا تقل 1500 م ولا وجود لمزنة ركامية السحاب الأسود

TAF: YPWR 171732Z 1718/1812 15010KT CAVOK FM180400 19010KT CAVOK

أرصاد الطقس والتوقعات من أكثر من 4000 مطار (تقارير الطقس للمطار METAR والتنبؤ بالطقس بالمطارTAF).

المحطات المتاحة هي النقط الصفراء والحمراء على الخريطة.

حرك المؤشر فوق النقطة لمعرفة اسم المحطة.

ثم انقر لمعرفة أرصاد وتوقعات الطقس.

لتغيير الخارطة: اضغط على الأزرار الخضراء مع رمز الصليب الأسود للتكبير. على الزر الأخضر مع شرطة للتصغير، أو على الأسهم الخضراء للخرائط المجاورة.


METAR-TAF: